首页
METAR-TAF:

METAR-TAF

机场 :

San Antonio del Táchira, 委内瑞拉

纬度: 07-51N, 经度: 072-27W, 海拔: 377米

METAR: 丢失

时间: 21:43 (01:43 UTC)

预报

该预报发布于3小时和43分钟前的22:00 UTC
预报有效从25日的 00点(UTC)到 26日的 00点(UTC)
风速4节,风向东转东南
能见度10公里或以上
散云层高于1600英尺
短暂存在
从 25日的 02点(UTC)到 25日的 06点(UTC)
风速2节,风向东转东南
能見度: 9000
多云层高于1600英尺
毛毛雨
从 25日的 0600点(UTC)
风速5节,风向
能见度10公里或以上
散云层高于1600英尺
散云层高于10000英尺

TAF: SVSA 242200Z 2500/2600 12004KT 9999 SCT016 TX30/2518Z TN16/2508Z TEMPO 2502/2506 11002KT 9000 DZ BKN016 FM250600 18005KT 9999 SCT016 SCT100

超过4000个机场的气象观测和天气预报(METAR&TAF报告)。

可查询的气象台以黄色和红色小点在地图上表示。

将鼠标移到小点上方,可查看气象台名称。

然后点击查看天气观测和预报。

如需切换地图:点击带黑十字的绿色按钮放大地图;点击带横线的绿色按钮缩小地图;或者点击绿色箭头查看邻近地区的地图。


METAR-TAF: